Time;durP1;ratioP1;P1;durP2;ratioP2;P2;SDS_P1;SDS_P2;PMS_P1;PMS_P2;Temp;Humidity;BMP_temperature;BMP_pressure;BME280_temperature;BME280_humidity;BME280_pressure;Samples;Min_cycle;Max_cycle;Signal;HPM_P1;HPM_P2
2022/01/10 00:02:17;;;;;;;48.58;26.63;;;3.60;99.90;;;;;;5059935;28;20246;-52
2022/01/10 00:04:45;;;;;;;43.80;24.52;;;3.70;99.90;;;;;;5059850;28;20199;-50
2022/01/10 00:07:13;;;;;;;40.13;23.52;;;3.70;99.90;;;;;;5062403;28;20201;-48
2022/01/10 00:09:40;;;;;;;39.47;24.85;;;3.80;99.90;;;;;;5064445;28;20247;-47
2022/01/10 00:12:07;;;;;;;40.80;24.23;;;3.90;99.90;;;;;;5064738;28;20235;-48
2022/01/10 00:14:35;;;;;;;49.13;25.83;;;4.00;99.90;;;;;;5064372;28;20220;-47
2022/01/10 00:17:03;;;;;;;38.03;24.27;;;4.10;99.90;;;;;;5064206;28;20228;-49
2022/01/10 00:19:31;;;;;;;48.40;24.83;;;4.00;99.90;;;;;;5063891;28;20263;-47
2022/01/10 00:21:58;;;;;;;36.95;24.50;;;3.40;99.90;;;;;;5063959;28;20242;-45
2022/01/10 00:24:25;;;;;;;46.35;25.05;;;3.30;99.90;;;;;;5063734;28;20220;-48
2022/01/10 00:26:52;;;;;;;45.33;25.08;;;3.40;99.90;;;;;;5063334;28;20240;-50
2022/01/10 00:29:20;;;;;;;39.47;23.27;;;3.30;99.90;;;;;;5062317;28;20433;-45
2022/01/10 00:31:47;;;;;;;43.65;24.00;;;3.30;99.90;;;;;;5062802;28;20550;-49
2022/01/10 00:34:14;;;;;;;41.90;26.83;;;3.30;99.90;;;;;;5063010;28;20294;-50
2022/01/10 00:36:41;;;;;;;37.63;24.40;;;3.50;99.90;;;;;;5062675;28;20220;-47
2022/01/10 00:39:09;;;;;;;46.63;26.15;;;3.70;99.90;;;;;;5063037;28;20202;-46
2022/01/10 00:41:37;;;;;;;41.28;23.50;;;3.90;99.90;;;;;;5063476;28;20247;-49
2022/01/10 00:44:04;;;;;;;51.83;25.35;;;4.10;99.90;;;;;;5062682;28;20255;-48
2022/01/10 00:46:31;;;;;;;48.40;25.23;;;4.10;99.90;;;;;;5063064;28;20207;-46
2022/01/10 00:48:59;;;;;;;41.67;27.42;;;4.20;99.90;;;;;;5062540;28;20202;-45
2022/01/10 00:51:26;;;;;;;50.83;27.30;;;4.10;99.90;;;;;;5062843;28;20441;-45
2022/01/10 00:53:54;;;;;;;49.17;28.33;;;4.00;99.90;;;;;;5062453;28;20419;-46
2022/01/10 00:56:21;;;;;;;48.28;26.80;;;4.00;99.90;;;;;;5063023;28;20220;-50
2022/01/10 00:58:48;;;;;;;53.80;27.70;;;3.70;99.90;;;;;;5063281;28;20204;-46
2022/01/10 01:01:16;;;;;;;52.00;28.60;;;3.60;99.90;;;;;;5062605;28;20215;-50
2022/01/10 01:03:45;;;;;;;40.83;25.48;;;3.80;99.90;;;;;;5063312;28;20403;-49
2022/01/10 01:06:14;;;;;;;40.28;26.95;;;3.90;99.90;;;;;;5063914;28;20202;-49
2022/01/10 01:08:42;;;;;;;50.58;29.60;;;3.70;99.90;;;;;;5070696;28;20226;-45
2022/01/10 01:13:53;;;;;;;46.80;29.05;;;3.50;99.90;;;;;;5062836;28;20225;-49
2022/01/10 01:16:43;;;;;;;43.47;25.92;;;3.60;99.90;;;;;;5062816;28;20490;-48
2022/01/10 01:24:28;;;;;;;46.58;26.88;;;3.30;99.90;;;;;;5062883;28;20218;-48
2022/01/10 01:26:55;;;;;;;52.28;29.85;;;3.20;99.90;;;;;;5063122;28;20528;-52
2022/01/10 01:29:25;;;;;;;51.90;28.67;;;3.10;99.90;;;;;;5062535;28;20448;-44
2022/01/10 01:31:53;;;;;;;50.03;26.67;;;3.20;99.90;;;;;;5062928;28;20241;-48
2022/01/10 01:34:22;;;;;;;54.45;26.90;;;3.30;99.90;;;;;;5061904;28;20454;-53
2022/01/10 01:36:53;;;;;;;51.72;28.02;;;3.50;99.90;;;;;;5061920;28;20220;-45
2022/01/10 01:39:23;;;;;;;60.25;30.98;;;3.50;99.90;;;;;;5061838;28;20422;-47
2022/01/10 01:42:06;;;;;;;46.40;28.80;;;3.60;99.90;;;;;;5062482;28;20206;-46
2022/01/10 01:44:33;;;;;;;47.58;27.67;;;3.30;99.90;;;;;;5062203;28;20443;-47
2022/01/10 01:47:01;;;;;;;44.47;29.75;;;3.00;99.90;;;;;;5061710;28;20200;-49
2022/01/10 01:49:28;;;;;;;56.30;32.00;;;2.80;99.90;;;;;;5062850;28;20195;-47
2022/01/10 01:51:55;;;;;;;48.35;28.88;;;2.90;99.90;;;;;;5062217;28;20230;-46
2022/01/10 01:54:22;;;;;;;56.60;29.27;;;3.10;99.90;;;;;;5062494;28;20225;-46
2022/01/10 01:56:51;;;;;;;55.28;29.58;;;3.20;99.90;;;;;;5062250;28;20247;-52
2022/01/10 01:59:18;;;;;;;53.65;27.27;;;3.30;99.90;;;;;;5062025;28;20199;-46
2022/01/10 02:01:45;;;;;;;49.28;29.63;;;3.40;99.90;;;;;;5062545;28;20247;-49
2022/01/10 02:04:13;;;;;;;52.05;29.98;;;3.20;99.90;;;;;;5061369;28;20212;-47
2022/01/10 02:06:41;;;;;;;55.40;30.13;;;2.90;99.90;;;;;;5061681;28;20212;-47
2022/01/10 02:09:08;;;;;;;51.20;29.77;;;3.10;99.90;;;;;;5061373;28;20200;-47
2022/01/10 02:11:35;;;;;;;62.08;32.83;;;3.10;99.90;;;;;;5061811;28;20556;-44
2022/01/10 02:14:04;;;;;;;49.60;29.20;;;3.40;99.90;;;;;;5061167;28;20360;-48
2022/01/10 02:16:40;;;;;;;51.33;30.58;;;3.70;99.90;;;;;;5061669;28;20292;-51
2022/01/10 02:19:08;;;;;;;50.58;27.23;;;3.70;99.90;;;;;;5061397;28;20204;-47
2022/01/10 02:21:36;;;;;;;54.92;27.88;;;3.70;99.90;;;;;;5062932;28;20235;-48
2022/01/10 02:24:05;;;;;;;47.03;27.48;;;3.60;99.90;;;;;;5062395;28;20230;-47
2022/01/10 02:26:33;;;;;;;48.15;26.30;;;3.40;99.90;;;;;;5062015;28;20201;-48
2022/01/10 02:29:01;;;;;;;48.60;29.05;;;3.40;99.90;;;;;;5062132;28;20210;-46
2022/01/10 02:31:28;;;;;;;45.50;28.30;;;3.40;99.90;;;;;;5055605;28;20208;-46
2022/01/10 02:33:57;;;;;;;48.90;30.20;;;3.50;99.90;;;;;;5062607;28;20219;-47
2022/01/10 02:36:26;;;;;;;45.03;27.40;;;3.80;99.90;;;;;;5060511;28;20434;-48
2022/01/10 02:38:58;;;;;;;52.03;30.65;;;4.10;99.90;;;;;;5060885;28;20201;-49
2022/01/10 02:41:30;;;;;;;54.58;29.00;;;4.20;99.90;;;;;;5061046;28;20224;-51
2022/01/10 02:43:59;;;;;;;54.88;27.92;;;4.30;99.90;;;;;;5060470;28;20216;-46
2022/01/10 02:46:30;;;;;;;45.25;27.55;;;4.40;99.90;;;;;;5061139;28;20197;-43
2022/01/10 02:48:57;;;;;;;53.90;27.90;;;4.40;99.90;;;;;;5067402;28;20201;-49
2022/01/10 02:51:24;;;;;;;53.65;31.60;;;4.40;99.90;;;;;;5062747;28;20205;-44
2022/01/10 02:53:51;;;;;;;54.25;29.90;;;4.50;99.90;;;;;;5060292;28;20259;-49
2022/01/10 02:56:19;;;;;;;51.85;28.45;;;4.60;99.90;;;;;;5060493;28;20218;-47
2022/01/10 02:58:46;;;;;;;51.50;30.33;;;4.60;99.90;;;;;;5060184;28;20271;-48
2022/01/10 03:01:14;;;;;;;50.40;27.55;;;4.60;99.90;;;;;;5060387;28;20234;-46
2022/01/10 03:03:41;;;;;;;45.25;28.48;;;4.50;99.90;;;;;;5060886;28;20263;-46
2022/01/10 03:06:10;;;;;;;49.47;28.08;;;4.60;99.90;;;;;;5060035;28;20201;-51
2022/01/10 03:08:37;;;;;;;48.30;31.35;;;4.60;99.90;;;;;;5060412;28;20439;-48
2022/01/10 03:11:05;;;;;;;47.03;31.15;;;4.60;99.90;;;;;;5060159;28;20385;-51
2022/01/10 03:13:32;;;;;;;54.28;28.35;;;4.70;99.90;;;;;;5060647;28;20463;-49
2022/01/10 03:15:59;;;;;;;44.30;26.48;;;4.70;99.90;;;;;;5059866;28;20195;-50
2022/01/10 03:18:27;;;;;;;50.08;29.42;;;4.70;99.90;;;;;;5060420;28;20197;-46
2022/01/10 03:20:54;;;;;;;48.00;29.05;;;4.80;99.90;;;;;;5048392;28;20213;-48
2022/01/10 03:23:21;;;;;;;55.85;28.33;;;4.80;99.90;;;;;;5060578;28;20248;-49
2022/01/10 03:25:48;;;;;;;46.20;27.98;;;4.70;99.90;;;;;;5059893;28;20446;-50
2022/01/10 03:28:15;;;;;;;48.20;29.50;;;4.40;99.90;;;;;;5059908;28;20201;-49
2022/01/10 03:30:43;;;;;;;47.22;27.73;;;4.40;99.90;;;;;;5060349;28;20264;-49
2022/01/10 03:33:10;;;;;;;42.00;26.80;;;4.50;99.90;;;;;;5059736;28;20902;-47
2022/01/10 03:35:38;;;;;;;58.67;31.88;;;4.70;99.90;;;;;;5060577;28;20233;-46
2022/01/10 03:38:05;;;;;;;49.92;29.00;;;4.80;99.90;;;;;;5060022;28;20231;-53
2022/01/10 03:40:33;;;;;;;48.33;29.42;;;4.70;99.90;;;;;;5059840;28;20197;-50
2022/01/10 03:43:00;;;;;;;45.20;27.50;;;4.70;99.90;;;;;;5060333;28;20217;-46
2022/01/10 03:45:27;;;;;;;44.95;26.30;;;4.70;99.90;;;;;;5059518;28;20248;-46
2022/01/10 03:47:54;;;;;;;50.50;29.10;;;4.70;99.90;;;;;;5059903;28;20202;-46
2022/01/10 03:50:22;;;;;;;63.08;30.85;;;4.80;99.90;;;;;;5059743;28;20201;-47
2022/01/10 03:52:49;;;;;;;48.65;28.73;;;4.90;99.90;;;;;;5060109;28;20398;-48
2022/01/10 03:55:16;;;;;;;47.33;29.05;;;4.90;99.90;;;;;;5059012;28;20202;-51
2022/01/10 03:57:44;;;;;;;46.63;28.63;;;5.00;99.90;;;;;;5059803;28;20462;-44
2022/01/10 04:00:11;;;;;;;57.72;29.75;;;5.00;99.90;;;;;;5059783;28;20202;-49
2022/01/10 04:02:42;;;;;;;43.15;26.40;;;4.90;99.90;;;;;;5059327;28;20543;-50
2022/01/10 04:05:10;;;;;;;45.78;25.52;;;4.90;99.90;;;;;;5059661;28;20388;-50
2022/01/10 04:07:37;;;;;;;46.55;26.58;;;4.90;99.90;;;;;;5059138;28;20207;-51
2022/01/10 04:10:05;;;;;;;47.20;27.17;;;5.00;99.90;;;;;;5059416;28;20203;-49
2022/01/10 04:12:32;;;;;;;44.53;27.50;;;5.00;99.90;;;;;;5059428;28;20225;-47
2022/01/10 04:14:59;;;;;;;51.88;28.23;;;5.00;99.90;;;;;;5059264;28;20201;-47
2022/01/10 04:17:27;;;;;;;51.15;25.27;;;4.90;99.90;;;;;;5059313;28;20541;-46
2022/01/10 04:19:54;;;;;;;49.45;27.30;;;5.00;99.90;;;;;;5059253;28;20516;-45
2022/01/10 04:22:22;;;;;;;57.60;30.75;;;5.00;99.90;;;;;;5059374;28;20338;-47
2022/01/10 04:24:49;;;;;;;43.40;29.67;;;5.00;99.90;;;;;;5059209;28;20214;-50
2022/01/10 04:27:16;;;;;;;45.63;27.73;;;5.00;99.90;;;;;;5059486;28;20247;-45
2022/01/10 04:29:43;;;;;;;57.35;30.40;;;4.90;99.90;;;;;;5067264;28;20390;-47
2022/01/10 04:32:12;;;;;;;44.00;26.45;;;4.70;99.90;;;;;;5063083;28;20202;-49
2022/01/10 04:34:40;;;;;;;45.30;27.73;;;4.70;99.90;;;;;;5059327;28;20228;-49
2022/01/10 04:37:07;;;;;;;48.45;29.65;;;4.50;99.90;;;;;;5058904;28;20408;-44
2022/01/10 04:39:34;;;;;;;49.08;24.17;;;4.50;99.90;;;;;;5059692;28;20244;-47
2022/01/10 04:42:02;;;;;;;57.17;30.88;;;4.30;99.90;;;;;;5058955;28;20206;-45
2022/01/10 04:44:29;;;;;;;46.75;27.23;;;4.10;99.90;;;;;;5059273;28;20239;-47
2022/01/10 04:46:56;;;;;;;47.22;26.55;;;3.70;99.90;;;;;;5058823;28;20201;-48
2022/01/10 04:49:26;;;;;;;45.83;29.48;;;3.60;99.90;;;;;;5059220;28;20209;-46
2022/01/10 04:51:54;;;;;;;46.67;27.15;;;3.40;99.90;;;;;;5058824;28;20507;-46
2022/01/10 04:54:21;;;;;;;49.78;28.40;;;3.20;99.90;;;;;;5062485;28;20220;-47
2022/01/10 04:56:49;;;;;;;48.47;27.02;;;3.20;99.90;;;;;;5061875;28;20315;-51
2022/01/10 04:59:16;;;;;;;48.42;24.75;;;3.10;99.90;;;;;;5062661;28;20196;-46
2022/01/10 05:01:43;;;;;;;42.97;27.02;;;2.80;99.90;;;;;;5057712;28;20195;-49
2022/01/10 05:04:11;;;;;;;48.05;28.63;;;2.80;99.90;;;;;;5058018;28;20435;-47
2022/01/10 05:06:38;;;;;;;47.75;27.33;;;2.50;99.90;;;;;;5047531;28;20196;-48
2022/01/10 05:09:06;;;;;;;43.13;24.33;;;2.60;99.90;;;;;;5047766;28;20204;-46
2022/01/10 05:11:35;;;;;;;49.90;26.80;;;2.50;99.90;;;;;;5045397;28;20211;-46
2022/01/10 05:14:03;;;;;;;49.58;26.52;;;2.40;99.90;;;;;;5055591;28;20250;-46
2022/01/10 05:16:30;;;;;;;43.20;26.65;;;2.40;99.90;;;;;;5062566;28;20195;-48
2022/01/10 05:18:58;;;;;;;42.35;25.80;;;2.50;99.90;;;;;;5054388;28;20196;-46
2022/01/10 05:21:25;;;;;;;40.60;25.33;;;2.50;99.90;;;;;;5045520;28;20204;-48
2022/01/10 05:23:52;;;;;;;37.45;26.08;;;2.50;99.90;;;;;;5048355;28;20217;-47
2022/01/10 05:26:19;;;;;;;37.00;25.75;;;2.60;99.90;;;;;;5045446;28;20235;-45
2022/01/10 05:28:47;;;;;;;41.67;24.00;;;2.80;99.90;;;;;;5060858;28;20629;-50
2022/01/10 05:31:14;;;;;;;44.03;27.02;;;2.90;99.90;;;;;;5062249;28;20269;-44
2022/01/10 05:33:47;;;;;;;47.63;24.85;;;2.90;99.90;;;;;;5062911;28;20250;-48
2022/01/10 05:36:14;;;;;;;44.90;27.27;;;3.10;99.90;;;;;;5063018;28;20216;-46
2022/01/10 05:38:41;;;;;;;39.00;23.42;;;3.40;99.90;;;;;;5062862;28;20620;-50
2022/01/10 05:41:09;;;;;;;37.35;23.65;;;3.10;99.90;;;;;;5063200;28;20198;-50
2022/01/10 05:43:36;;;;;;;46.28;26.52;;;2.90;99.90;;;;;;5062413;28;20216;-51
2022/01/10 05:46:08;;;;;;;41.00;22.88;;;2.70;99.90;;;;;;5062675;28;20446;-45
2022/01/10 05:48:39;;;;;;;34.03;23.45;;;2.80;99.90;;;;;;5056853;28;20201;-51
2022/01/10 05:51:07;;;;;;;33.58;23.42;;;2.90;99.90;;;;;;5062865;28;20247;-45
2022/01/10 05:53:35;;;;;;;36.00;22.33;;;3.10;99.90;;;;;;5062508;28;20228;-46
2022/01/10 05:56:02;;;;;;;40.90;25.27;;;3.40;99.90;;;;;;5062008;28;20207;-45
2022/01/10 05:58:29;;;;;;;41.10;24.45;;;3.50;99.90;;;;;;5062218;28;20282;-46
2022/01/10 06:00:56;;;;;;;30.88;21.92;;;3.80;99.90;;;;;;5061797;28;20204;-47
2022/01/10 06:03:24;;;;;;;40.47;23.08;;;3.70;99.90;;;;;;5061928;28;20223;-46
2022/01/10 06:05:51;;;;;;;36.45;23.42;;;3.80;99.90;;;;;;5062745;28;20441;-46
2022/01/10 06:08:18;;;;;;;36.85;25.58;;;3.90;99.90;;;;;;5046086;28;20200;-50
2022/01/10 06:10:46;;;;;;;41.50;23.10;;;3.80;99.90;;;;;;5065816;28;20250;-46
2022/01/10 06:13:13;;;;;;;41.20;24.45;;;3.60;99.90;;;;;;5054491;28;20275;-51
2022/01/10 06:15:41;;;;;;;40.03;24.67;;;3.30;99.90;;;;;;5048303;28;20251;-47
2022/01/10 06:18:08;;;;;;;41.85;23.58;;;3.00;99.90;;;;;;5048143;28;20225;-47
2022/01/10 06:20:36;;;;;;;34.80;22.83;;;2.80;99.90;;;;;;5052468;28;20250;-50
2022/01/10 06:23:03;;;;;;;30.40;20.30;;;2.70;99.90;;;;;;5045968;28;20232;-49
2022/01/10 06:25:31;;;;;;;43.88;23.77;;;2.50;99.90;;;;;;5043138;28;20201;-46
2022/01/10 06:27:58;;;;;;;45.95;21.85;;;2.40;99.90;;;;;;5043139;28;20203;-47
2022/01/10 06:30:26;;;;;;;36.78;21.48;;;2.50;99.90;;;;;;5043874;28;20246;-49
2022/01/10 06:32:53;;;;;;;34.65;20.85;;;2.50;99.90;;;;;;5045033;28;20240;-47
2022/01/10 06:35:20;;;;;;;39.13;19.90;;;2.30;99.90;;;;;;5043072;28;20507;-50
2022/01/10 06:37:47;;;;;;;35.60;19.63;;;2.30;99.90;;;;;;5047118;28;20553;-48
2022/01/10 06:40:15;;;;;;;38.45;22.65;;;2.20;99.90;;;;;;5044139;28;20196;-46
2022/01/10 06:42:42;;;;;;;31.88;20.40;;;2.20;99.90;;;;;;5043802;28;20221;-45
2022/01/10 06:45:10;;;;;;;44.25;22.13;;;2.20;99.90;;;;;;5046010;28;20238;-51
2022/01/10 06:47:38;;;;;;;37.55;20.60;;;2.20;99.90;;;;;;5049101;28;20204;-50
2022/01/10 06:50:06;;;;;;;37.13;21.88;;;2.20;99.90;;;;;;5047189;28;20523;-47
2022/01/10 06:52:34;;;;;;;36.42;22.52;;;2.30;99.90;;;;;;5053957;28;20244;-49
2022/01/10 06:55:01;;;;;;;30.10;20.13;;;2.10;99.90;;;;;;5047572;28;20215;-45
2022/01/10 06:57:28;;;;;;;35.53;21.85;;;2.20;99.90;;;;;;5049115;28;20266;-48
2022/01/10 06:59:56;;;;;;;44.42;21.00;;;2.20;99.90;;;;;;5046880;28;20250;-50
2022/01/10 07:02:23;;;;;;;36.10;22.30;;;2.10;99.90;;;;;;5044835;28;20204;-50
2022/01/10 07:04:51;;;;;;;35.28;21.85;;;2.20;99.90;;;;;;5046657;28;20260;-49
2022/01/10 07:07:18;;;;;;;33.70;21.30;;;2.10;99.90;;;;;;5042271;28;20230;-45
2022/01/10 07:09:45;;;;;;;36.83;20.00;;;2.50;99.90;;;;;;5043193;28;20200;-50
2022/01/10 07:12:13;;;;;;;33.15;20.52;;;2.50;99.90;;;;;;5041653;28;20223;-48
2022/01/10 07:14:40;;;;;;;35.90;21.27;;;2.50;99.90;;;;;;5043629;28;20205;-48
2022/01/10 07:17:08;;;;;;;41.58;22.25;;;2.20;99.90;;;;;;5041642;28;20211;-47
2022/01/10 07:19:36;;;;;;;38.47;21.70;;;2.20;99.90;;;;;;5042409;28;20201;-49
2022/01/10 07:22:04;;;;;;;39.95;23.75;;;2.10;99.90;;;;;;5042928;28;20208;-51
2022/01/10 07:24:32;;;;;;;35.20;21.80;;;2.20;99.90;;;;;;5042257;28;20216;-45
2022/01/10 07:27:01;;;;;;;33.33;21.00;;;2.00;99.90;;;;;;5043048;28;20250;-46
2022/01/10 07:29:28;;;;;;;40.13;20.75;;;2.10;99.90;;;;;;5043604;28;20204;-47
2022/01/10 07:31:55;;;;;;;33.38;22.20;;;2.20;99.90;;;;;;5046165;28;20207;-45
2022/01/10 07:34:22;;;;;;;34.55;19.70;;;2.40;99.90;;;;;;5042002;28;20278;-47
2022/01/10 07:36:50;;;;;;;36.05;19.08;;;2.40;99.90;;;;;;5042789;28;20204;-50
2022/01/10 07:39:17;;;;;;;37.70;20.25;;;2.30;99.90;;;;;;5040896;28;20229;-47
2022/01/10 07:41:45;;;;;;;35.08;18.92;;;2.20;99.90;;;;;;5045897;28;20208;-47
2022/01/10 07:44:12;;;;;;;36.13;19.38;;;2.20;99.90;;;;;;5042024;28;20255;-46
2022/01/10 07:46:40;;;;;;;28.70;18.13;;;2.10;99.90;;;;;;5041751;28;20196;-47
2022/01/10 07:49:07;;;;;;;32.33;19.73;;;2.10;99.90;;;;;;5045339;28;20203;-46
2022/01/10 07:51:34;;;;;;;35.83;18.67;;;2.10;99.90;;;;;;5054645;28;20239;-49
2022/01/10 07:54:02;;;;;;;33.35;20.02;;;2.20;99.90;;;;;;5060421;28;20215;-45
2022/01/10 07:56:29;;;;;;;31.17;20.58;;;2.20;99.90;;;;;;5040907;28;20378;-48
2022/01/10 07:58:56;;;;;;;33.88;18.83;;;2.20;99.90;;;;;;5044549;28;20553;-49
2022/01/10 08:01:23;;;;;;;38.25;21.08;;;2.40;99.90;;;;;;5044536;28;20196;-46
2022/01/10 08:03:52;;;;;;;36.33;21.60;;;2.50;99.90;;;;;;5045636;28;20254;-49
2022/01/10 08:06:21;;;;;;;30.73;20.17;;;2.60;99.90;;;;;;5042462;28;20251;-48
2022/01/10 08:08:49;;;;;;;42.38;18.67;;;2.50;99.90;;;;;;5043324;28;20207;-47
2022/01/10 08:11:16;;;;;;;31.25;19.88;;;2.40;99.90;;;;;;5042417;28;20205;-47
2022/01/10 08:13:44;;;;;;;32.55;20.73;;;2.40;99.90;;;;;;5043018;28;20240;-52
2022/01/10 08:16:11;;;;;;;34.88;23.27;;;2.40;99.90;;;;;;5042319;28;20243;-49
2022/01/10 08:18:38;;;;;;;35.75;20.33;;;2.50;99.90;;;;;;5046360;28;20221;-44
2022/01/10 08:21:06;;;;;;;35.97;21.17;;;2.40;99.90;;;;;;5042490;28;20547;-46
2022/01/10 08:23:34;;;;;;;25.60;16.85;;;2.30;99.90;;;;;;5040176;28;20225;-48
2022/01/10 08:26:03;;;;;;;38.55;21.08;;;2.20;99.90;;;;;;5039547;28;20335;-52
2022/01/10 08:28:38;;;;;;;35.08;19.88;;;2.10;99.90;;;;;;5044025;28;20668;-48
2022/01/10 08:31:05;;;;;;;27.63;17.88;;;2.20;99.90;;;;;;5055768;28;20507;-48
2022/01/10 08:33:32;;;;;;;44.88;20.77;;;2.30;99.90;;;;;;5043514;28;20228;-47
2022/01/10 08:35:59;;;;;;;31.73;18.70;;;2.30;99.90;;;;;;5042813;28;20220;-47
2022/01/10 08:38:26;;;;;;;33.60;20.77;;;2.30;99.90;;;;;;5043235;28;20229;-45
2022/01/10 08:40:53;;;;;;;33.22;19.98;;;2.30;99.90;;;;;;5043101;28;20566;-49
2022/01/10 08:43:21;;;;;;;37.53;22.45;;;2.40;99.90;;;;;;5043163;28;20212;-47
2022/01/10 08:45:48;;;;;;;37.72;22.20;;;2.50;99.90;;;;;;5043264;28;20228;-46
2022/01/10 08:48:15;;;;;;;35.97;21.52;;;2.80;99.90;;;;;;5048886;28;20200;-47
2022/01/10 08:50:43;;;;;;;34.75;22.38;;;2.80;99.90;;;;;;5051522;28;20201;-48
2022/01/10 08:53:10;;;;;;;39.95;24.80;;;2.90;99.90;;;;;;5043131;28;20231;-47
2022/01/10 08:55:38;;;;;;;35.30;21.80;;;2.80;99.90;;;;;;5044085;28;20249;-46
2022/01/10 08:58:05;;;;;;;32.72;20.67;;;2.80;99.90;;;;;;5042438;28;20220;-46
2022/01/10 09:00:33;;;;;;;44.13;23.65;;;2.80;99.90;;;;;;5043204;28;20259;-46
2022/01/10 09:03:01;;;;;;;31.10;20.55;;;2.80;99.90;;;;;;5042449;28;20414;-45
2022/01/10 09:05:30;;;;;;;32.75;21.95;;;2.90;99.90;;;;;;5045304;28;20235;-46
2022/01/10 09:07:58;;;;;;;39.30;25.20;;;2.70;99.90;;;;;;5042369;28;20208;-47
2022/01/10 09:10:26;;;;;;;38.28;22.20;;;2.70;99.90;;;;;;5047289;28;20244;-49
2022/01/10 09:12:59;;;;;;;40.75;23.80;;;2.60;99.90;;;;;;5042374;28;20228;-50
2022/01/10 09:15:27;;;;;;;38.22;23.42;;;2.70;99.90;;;;;;5043158;28;20201;-49
2022/01/10 09:17:54;;;;;;;35.58;23.08;;;2.60;99.90;;;;;;5050586;28;20225;-43
2022/01/10 09:20:21;;;;;;;44.08;25.40;;;2.60;99.90;;;;;;5050064;28;20480;-49
2022/01/10 09:22:50;;;;;;;42.00;24.42;;;2.70;99.90;;;;;;5042912;28;20288;-51
2022/01/10 09:25:17;;;;;;;41.30;25.08;;;2.80;99.90;;;;;;5042068;28;20257;-47
2022/01/10 09:27:44;;;;;;;40.50;24.38;;;2.80;99.90;;;;;;5042635;28;20496;-49
2022/01/10 09:30:12;;;;;;;50.97;27.50;;;2.70;99.90;;;;;;5042242;28;20539;-45
2022/01/10 09:32:39;;;;;;;40.13;26.45;;;2.80;99.90;;;;;;5052166;28;20294;-50
2022/01/10 09:35:08;;;;;;;49.45;29.95;;;2.70;99.90;;;;;;5053204;28;20204;-55
2022/01/10 09:37:35;;;;;;;45.92;27.17;;;2.60;99.90;;;;;;5047111;28;20197;-48
2022/01/10 09:40:06;;;;;;;52.80;28.58;;;2.70;99.90;;;;;;5049738;28;20214;-44
2022/01/10 09:42:33;;;;;;;62.30;31.65;;;2.90;99.90;;;;;;5042090;28;20197;-49
2022/01/10 09:45:04;;;;;;;39.35;27.83;;;3.00;99.90;;;;;;5047669;28;20204;-45
2022/01/10 09:47:31;;;;;;;45.28;28.67;;;3.10;99.90;;;;;;5049289;28;20197;-47
2022/01/10 09:50:07;;;;;;;46.28;29.58;;;3.20;99.90;;;;;;5049575;28;20206;-45
2022/01/10 09:52:36;;;;;;;51.20;28.00;;;3.30;99.90;;;;;;5041557;28;20553;-46
2022/01/10 09:55:03;;;;;;;60.47;32.03;;;3.30;99.90;;;;;;5045514;28;20267;-45
2022/01/10 09:57:31;;;;;;;50.70;30.45;;;3.20;99.90;;;;;;5045692;28;20197;-45
2022/01/10 09:59:58;;;;;;;54.75;29.50;;;2.90;99.90;;;;;;5042125;28;20255;-46
2022/01/10 10:02:35;;;;;;;48.95;28.70;;;2.90;99.90;;;;;;5042206;28;20396;-47
2022/01/10 10:05:07;;;;;;;38.70;25.50;;;3.10;99.90;;;;;;5046336;28;20483;-49
2022/01/10 10:07:39;;;;;;;52.35;29.77;;;3.20;99.90;;;;;;5041888;28;20378;-44
2022/01/10 10:10:11;;;;;;;43.90;27.08;;;3.20;99.90;;;;;;5042166;28;20198;-45
2022/01/10 10:12:47;;;;;;;50.22;29.05;;;3.30;99.90;;;;;;5042492;28;20223;-45
2022/01/10 10:15:17;;;;;;;45.20;27.35;;;3.30;99.90;;;;;;5041710;28;20236;-49
2022/01/10 10:17:46;;;;;;;46.33;27.05;;;3.30;99.90;;;;;;5042156;28;20198;-49
2022/01/10 10:20:16;;;;;;;43.53;27.05;;;3.20;99.90;;;;;;5046591;28;20204;-45
2022/01/10 10:23:05;;;;;;;53.35;31.50;;;2.90;99.90;;;;;;5041614;28;20420;-48
2022/01/10 10:25:33;;;;;;;50.35;30.27;;;3.10;99.90;;;;;;5041461;28;20204;-46
2022/01/10 10:28:02;;;;;;;50.70;29.33;;;3.20;99.90;;;;;;5041543;28;20244;-46
2022/01/10 10:30:31;;;;;;;43.90;25.70;;;3.10;99.90;;;;;;5041136;28;20197;-47
2022/01/10 10:33:23;;;;;;;41.15;27.00;;;2.90;99.90;;;;;;5041816;28;20218;-45
2022/01/10 10:36:03;;;;;;;54.40;28.25;;;2.70;99.90;;;;;;5041189;28;20535;-48
2022/01/10 10:38:31;;;;;;;51.22;27.02;;;2.60;99.90;;;;;;5041735;28;20229;-47
2022/01/10 10:41:04;;;;;;;53.67;28.50;;;2.60;99.90;;;;;;5042234;28;20256;-48
2022/01/10 10:43:33;;;;;;;42.50;28.60;;;2.80;99.90;;;;;;5041264;28;20551;-44
2022/01/10 10:46:12;;;;;;;51.08;30.20;;;2.80;99.90;;;;;;5041293;28;20200;-47
2022/01/10 10:48:42;;;;;;;44.85;29.95;;;3.00;99.90;;;;;;5049915;28;20546;-48
2022/01/10 10:51:10;;;;;;;52.47;29.58;;;3.20;99.90;;;;;;5047415;28;20501;-46
2022/01/10 10:53:39;;;;;;;48.35;30.95;;;3.30;99.90;;;;;;5041268;28;20241;-48
2022/01/10 10:56:07;;;;;;;64.15;34.95;;;3.20;99.90;;;;;;5048259;28;20216;-45
2022/01/10 10:58:39;;;;;;;46.88;29.20;;;3.20;99.90;;;;;;5040790;28;20234;-46
2022/01/10 11:01:07;;;;;;;58.60;32.72;;;3.40;99.90;;;;;;5044742;28;20193;-45
2022/01/10 11:03:34;;;;;;;59.63;32.72;;;3.40;99.90;;;;;;5044144;28;20273;-47
2022/01/10 11:06:04;;;;;;;49.90;31.75;;;3.50;99.90;;;;;;5043185;28;20203;-46
2022/01/10 11:08:33;;;;;;;58.25;32.22;;;3.60;99.90;;;;;;5050951;28;20203;-46
2022/01/10 11:11:01;;;;;;;63.72;33.55;;;3.50;99.90;;;;;;5041170;28;20497;-47
2022/01/10 11:13:29;;;;;;;47.13;31.05;;;3.30;99.90;;;;;;5041344;28;20412;-45
2022/01/10 11:15:58;;;;;;;58.50;34.83;;;3.30;99.90;;;;;;5045044;28;20214;-48
2022/01/10 11:18:26;;;;;;;48.55;30.25;;;3.30;99.90;;;;;;5051259;28;20265;-45
2022/01/10 11:20:57;;;;;;;61.17;35.08;;;3.30;99.90;;;;;;5046315;28;20201;-48
2022/01/10 11:23:41;;;;;;;48.33;30.10;;;3.20;99.90;;;;;;5048301;28;20216;-46
2022/01/10 11:26:09;;;;;;;57.38;33.40;;;3.20;99.90;;;;;;5040346;28;20223;-44
2022/01/10 11:28:50;;;;;;;65.28;36.53;;;3.30;99.90;;;;;;5043577;28;20213;-49
2022/01/10 11:31:26;;;;;;;51.85;32.40;;;3.40;99.90;;;;;;5042950;28;20205;-45
2022/01/10 11:33:56;;;;;;;54.17;31.05;;;3.50;99.90;;;;;;5056850;28;20236;-46
2022/01/10 11:36:26;;;;;;;54.45;32.05;;;3.40;99.90;;;;;;5040385;28;20268;-48
2022/01/10 11:38:57;;;;;;;51.45;31.77;;;3.40;99.90;;;;;;5040630;28;20322;-47
2022/01/10 11:41:27;;;;;;;63.65;32.70;;;3.40;99.90;;;;;;5039915;28;20207;-47
2022/01/10 11:43:57;;;;;;;57.80;34.00;;;3.40;99.90;;;;;;5058600;28;20218;-47
2022/01/10 11:46:43;;;;;;;55.63;32.25;;;3.50;99.90;;;;;;5059982;28;20193;-45
2022/01/10 11:49:21;;;;;;;58.53;31.73;;;3.60;99.90;;;;;;5059690;28;20210;-49
2022/01/10 11:51:49;;;;;;;49.55;32.05;;;3.50;99.90;;;;;;5059749;28;20216;-46
2022/01/10 11:54:18;;;;;;;59.10;31.20;;;3.50;99.90;;;;;;5059485;28;20225;-44
2022/01/10 11:56:54;;;;;;;51.40;30.45;;;3.40;99.90;;;;;;5059750;28;20201;-49
2022/01/10 11:59:31;;;;;;;53.05;29.40;;;3.60;99.90;;;;;;5060790;28;20236;-45
2022/01/10 12:02:04;;;;;;;52.38;27.98;;;3.60;99.90;;;;;;5061731;28;20241;-50
2022/01/10 12:04:34;;;;;;;50.15;29.42;;;3.60;99.90;;;;;;5065033;28;20213;-50
2022/01/10 12:07:03;;;;;;;63.03;30.52;;;3.60;99.90;;;;;;5064275;28;20228;-49
2022/01/10 12:09:30;;;;;;;49.80;30.52;;;3.60;99.90;;;;;;5064068;28;20210;-47
2022/01/10 12:12:03;;;;;;;51.25;33.20;;;3.50;99.90;;;;;;5063732;28;20246;-45
2022/01/10 12:14:32;;;;;;;57.25;32.03;;;3.60;99.90;;;;;;5064330;28;20404;-47
2022/01/10 12:17:00;;;;;;;63.90;33.00;;;3.50;99.90;;;;;;5063195;28;20511;-49
2022/01/10 12:19:28;;;;;;;56.90;32.38;;;3.40;99.90;;;;;;5064034;28;20381;-50
2022/01/10 12:21:56;;;;;;;49.22;29.77;;;3.50;99.90;;;;;;5063447;28;20205;-47
2022/01/10 12:24:28;;;;;;;41.60;23.73;;;3.50;99.90;;;;;;5063876;28;20443;-48
2022/01/10 12:26:57;;;;;;;43.17;24.92;;;3.40;99.90;;;;;;5063163;28;20521;-47
2022/01/10 12:29:28;;;;;;;42.33;24.92;;;3.40;99.90;;;;;;5063555;28;20740;-44
2022/01/10 12:31:56;;;;;;;47.50;26.67;;;3.30;99.90;;;;;;5063792;28;20206;-44
2022/01/10 12:34:23;;;;;;;42.47;27.27;;;3.20;99.90;;;;;;5063288;28;20224;-48
2022/01/10 12:36:50;;;;;;;50.42;26.30;;;3.20;99.90;;;;;;5062067;28;20208;-47
2022/01/10 12:39:24;;;;;;;44.38;23.30;;;3.30;99.90;;;;;;5062989;28;20222;-46
2022/01/10 12:41:53;;;;;;;57.97;28.42;;;3.30;99.90;;;;;;5063225;28;20209;-46
2022/01/10 12:44:20;;;;;;;46.80;28.45;;;3.30;99.90;;;;;;5063480;28;20217;-49
2022/01/10 12:46:48;;;;;;;47.88;29.15;;;3.20;99.90;;;;;;5063172;28;20217;-44
2022/01/10 12:49:17;;;;;;;49.10;27.60;;;3.20;99.90;;;;;;5063396;28;20396;-48
2022/01/10 12:51:47;;;;;;;43.08;25.27;;;3.30;99.90;;;;;;5063027;28;20345;-50